APJ225 RJOO-RKSI
Flight info
| Callsign | APJ225 |
|---|---|
| Flight time | 1h 31m |
| Altitude | 38000 |
| Route | TOZAN Y38 SAPRA G585 GUKDO GUKDO2E |
| Aircraft | A21N/M-SDE2E3FGHIRWXY/LB1 |
Departure
| Time | 2026-05-04 04:39 |
|---|---|
| Airport | Osaka Itami International Airport (RJOO) |
Arrival
| Time | 2026-05-04 06:11 |
|---|---|
| Airport | Incheon International Airport (RKSI) |
| Time | Latitude | Longitude | Altitude | Speed | Heading |
|---|---|---|---|---|---|
| 2026-05-04 04:32 | 34.79347 | 135.43514 | 50 ft | 0 kts | 135° |
| 2026-05-04 04:34 | 34.79338 | 135.43526 | 54 ft | 8 kts | 135° |
| 2026-05-04 04:34 | 34.79255 | 135.43561 | 54 ft | 18 kts | 166° |
| 2026-05-04 04:34 | 34.79129 | 135.43598 | 54 ft | 19 kts | 166° |
| 2026-05-04 04:35 | 34.79007 | 135.43673 | 52 ft | 21 kts | 137° |
| 2026-05-04 04:35 | 34.78904 | 135.43804 | 53 ft | 22 kts | 133° |
| 2026-05-04 04:35 | 34.78769 | 135.43959 | 50 ft | 24 kts | 137° |
| 2026-05-04 04:35 | 34.78642 | 135.44117 | 54 ft | 25 kts | 133° |
| 2026-05-04 04:36 | 34.78535 | 135.44257 | 54 ft | 27 kts | 133° |
| 2026-05-04 04:36 | 34.78362 | 135.44337 | 55 ft | 28 kts | 181° |
| 2026-05-04 04:36 | 34.78223 | 135.44342 | 53 ft | 17 kts | 180° |
| 2026-05-04 04:36 | 34.78102 | 135.44428 | 52 ft | 22 kts | 133° |
| 2026-05-04 04:37 | 34.77737 | 135.44859 | 54 ft | 27 kts | 136° |
| 2026-05-04 04:37 | 34.77650 | 135.44967 | 53 ft | 27 kts | 135° |
| 2026-05-04 04:38 | 34.77448 | 135.45212 | 54 ft | 24 kts | 135° |
| 2026-05-04 04:38 | 34.77325 | 135.45260 | 54 ft | 25 kts | 175° |
| 2026-05-04 04:38 | 34.77247 | 135.45145 | 56 ft | 12 kts | 315° |
| 2026-05-04 04:38 | 34.77352 | 135.45035 | 54 ft | 46 kts | 317° |
| 2026-05-04 04:39 | 34.77748 | 135.44543 | 53 ft | 113 kts | 313° |
| 2026-05-04 04:39 | 34.78439 | 135.43702 | 87 ft | 160 kts | 316° |
| 2026-05-04 04:39 | 34.79178 | 135.42722 | 636 ft | 155 kts | 296° |
| 2026-05-04 04:39 | 34.79447 | 135.41518 | 1283 ft | 150 kts | 261° |
| 2026-05-04 04:40 | 34.78975 | 135.40563 | 1772 ft | 163 kts | 222° |
| 2026-05-04 04:40 | 34.77668 | 135.40094 | 2232 ft | 194 kts | 191° |
| 2026-05-04 04:40 | 34.77214 | 135.40095 | 2406 ft | 202 kts | 185° |
| 2026-05-04 04:40 | 34.75043 | 135.39556 | 2949 ft | 225 kts | 222° |
| 2026-05-04 04:41 | 34.73792 | 135.38262 | 3618 ft | 240 kts | 225° |
| 2026-05-04 04:41 | 34.72280 | 135.37279 | 4482 ft | 259 kts | 198° |
| 2026-05-04 04:41 | 34.70439 | 135.36936 | 5408 ft | 266 kts | 194° |
| 2026-05-04 04:41 | 34.68250 | 135.36526 | 6499 ft | 269 kts | 197° |
| 2026-05-04 04:42 | 34.66510 | 135.35999 | 7434 ft | 261 kts | 213° |
| 2026-05-04 04:42 | 34.65128 | 135.34458 | 8471 ft | 246 kts | 244° |
| 2026-05-04 04:42 | 34.64415 | 135.32595 | 9253 ft | 242 kts | 248° |
| 2026-05-04 04:42 | 34.63722 | 135.30730 | 9974 ft | 245 kts | 247° |
| 2026-05-04 04:43 | 34.63070 | 135.28754 | 10521 ft | 262 kts | 252° |
| 2026-05-04 04:43 | 34.62738 | 135.26473 | 10817 ft | 289 kts | 266° |
| 2026-05-04 04:43 | 34.63133 | 135.23958 | 11081 ft | 322 kts | 286° |
| 2026-05-04 04:43 | 34.64432 | 135.21575 | 11367 ft | 356 kts | 304° |
| 2026-05-04 04:44 | 34.65610 | 135.20119 | 11722 ft | 366 kts | 307° |
| 2026-05-04 04:44 | 34.67467 | 135.17940 | 12373 ft | 371 kts | 307° |
| 2026-05-04 04:44 | 34.69355 | 135.15771 | 13032 ft | 377 kts | 307° |
| 2026-05-04 04:44 | 34.71292 | 135.13590 | 13670 ft | 381 kts | 306° |
| 2026-05-04 04:45 | 34.73238 | 135.11380 | 14244 ft | 384 kts | 306° |
| 2026-05-04 04:45 | 34.75173 | 135.09161 | 14824 ft | 386 kts | 306° |
| 2026-05-04 04:45 | 34.77138 | 135.06902 | 15411 ft | 388 kts | 306° |
| 2026-05-04 04:47 | 34.89130 | 134.93029 | 18612 ft | 402 kts | 305° |
| 2026-05-04 04:47 | 34.91157 | 134.90667 | 19036 ft | 405 kts | 305° |
| 2026-05-04 04:47 | 34.93363 | 134.88101 | 19510 ft | 408 kts | 304° |
| 2026-05-04 04:47 | 34.95654 | 134.85436 | 20001 ft | 411 kts | 304° |
| 2026-05-04 04:48 | 34.97249 | 134.83582 | 20354 ft | 414 kts | 304° |
| 2026-05-04 04:49 | 35.05741 | 134.73713 | 22239 ft | 426 kts | 304° |
| 2026-05-04 04:49 | 35.07885 | 134.71207 | 22722 ft | 428 kts | 303° |
| 2026-05-04 04:49 | 35.10051 | 134.68683 | 23178 ft | 432 kts | 303° |
| 2026-05-04 04:49 | 35.12235 | 134.66146 | 23546 ft | 435 kts | 303° |
| 2026-05-04 04:50 | 35.14426 | 134.63577 | 23894 ft | 438 kts | 303° |
| 2026-05-04 04:50 | 35.16635 | 134.60985 | 24262 ft | 442 kts | 303° |
| 2026-05-04 04:50 | 35.18857 | 134.58387 | 24650 ft | 442 kts | 303° |
| 2026-05-04 04:50 | 35.21080 | 134.55779 | 24995 ft | 445 kts | 303° |
| 2026-05-04 04:51 | 35.23312 | 134.53154 | 25438 ft | 444 kts | 302° |
| 2026-05-04 04:51 | 35.25337 | 134.50407 | 26007 ft | 424 kts | 294° |
| 2026-05-04 04:51 | 35.26965 | 134.47125 | 26676 ft | 403 kts | 284° |
| 2026-05-04 04:51 | 35.27971 | 134.43994 | 27175 ft | 390 kts | 276° |
| 2026-05-04 04:52 | 35.28652 | 134.40636 | 27701 ft | 383 kts | 272° |
| 2026-05-04 04:52 | 35.29030 | 134.38440 | 28074 ft | 382 kts | 272° |
| 2026-05-04 04:52 | 35.29798 | 134.33960 | 28964 ft | 377 kts | 272° |
| 2026-05-04 04:52 | 35.30353 | 134.30839 | 29556 ft | 374 kts | 272° |
| 2026-05-04 04:53 | 35.30727 | 134.28782 | 29917 ft | 373 kts | 272° |
| 2026-05-04 04:53 | 35.31323 | 134.25565 | 30365 ft | 372 kts | 272° |
| 2026-05-04 04:53 | 35.31890 | 134.22517 | 30821 ft | 370 kts | 272° |
| 2026-05-04 04:53 | 35.32492 | 134.19300 | 31281 ft | 368 kts | 272° |
| 2026-05-04 04:54 | 35.32879 | 134.17237 | 31566 ft | 367 kts | 271° |
| 2026-05-04 04:54 | 35.33746 | 134.12625 | 32181 ft | 365 kts | 272° |
| 2026-05-04 04:54 | 35.34328 | 134.09586 | 32599 ft | 364 kts | 271° |
| 2026-05-04 04:54 | 35.34740 | 134.07454 | 32895 ft | 363 kts | 271° |
| 2026-05-04 04:55 | 35.35295 | 134.04573 | 33298 ft | 361 kts | 271° |
| 2026-05-04 04:55 | 35.35879 | 134.01539 | 33679 ft | 360 kts | 271° |
| 2026-05-04 04:55 | 35.36454 | 133.98560 | 34017 ft | 358 kts | 271° |
| 2026-05-04 04:55 | 35.36973 | 133.95862 | 34307 ft | 356 kts | 271° |
| 2026-05-04 04:56 | 35.37613 | 133.92495 | 34641 ft | 354 kts | 271° |
| 2026-05-04 04:56 | 35.38170 | 133.89557 | 34927 ft | 352 kts | 271° |
| 2026-05-04 04:56 | 35.38719 | 133.86659 | 35230 ft | 349 kts | 271° |
| 2026-05-04 04:56 | 35.39266 | 133.83764 | 35535 ft | 347 kts | 271° |
| 2026-05-04 04:57 | 35.39807 | 133.80890 | 35834 ft | 345 kts | 271° |
| 2026-05-04 04:57 | 35.40346 | 133.78029 | 36109 ft | 344 kts | 271° |
| 2026-05-04 04:57 | 35.40883 | 133.75186 | 36371 ft | 342 kts | 272° |
| 2026-05-04 04:57 | 35.41417 | 133.72353 | 36618 ft | 340 kts | 272° |
| 2026-05-04 04:58 | 35.41946 | 133.69529 | 36848 ft | 339 kts | 272° |
| 2026-05-04 04:58 | 35.42473 | 133.66719 | 37064 ft | 338 kts | 272° |
| 2026-05-04 04:58 | 35.43000 | 133.63912 | 37261 ft | 337 kts | 272° |
| 2026-05-04 04:58 | 35.43523 | 133.61118 | 37456 ft | 336 kts | 272° |
| 2026-05-04 04:59 | 35.44042 | 133.58329 | 37633 ft | 335 kts | 272° |
| 2026-05-04 04:59 | 35.44562 | 133.55545 | 37812 ft | 334 kts | 272° |
| 2026-05-04 04:59 | 35.45079 | 133.52767 | 37919 ft | 336 kts | 272° |
| 2026-05-04 04:59 | 35.45423 | 133.50912 | 37917 ft | 336 kts | 272° |
| 2026-05-04 05:00 | 35.46721 | 133.43928 | 37885 ft | 336 kts | 272° |
| 2026-05-04 05:01 | 35.48268 | 133.35557 | 37879 ft | 337 kts | 272° |
| 2026-05-04 05:01 | 35.49304 | 133.29947 | 37880 ft | 337 kts | 272° |
| 2026-05-04 05:02 | 35.50336 | 133.24328 | 37877 ft | 338 kts | 272° |
| 2026-05-04 05:02 | 35.51368 | 133.18703 | 37868 ft | 338 kts | 272° |
| 2026-05-04 05:03 | 35.52396 | 133.13067 | 37871 ft | 338 kts | 272° |
| 2026-05-04 05:04 | 35.54062 | 133.01768 | 37902 ft | 336 kts | 269° |
| 2026-05-04 05:04 | 35.54769 | 132.96091 | 37909 ft | 336 kts | 269° |
| 2026-05-04 05:06 | 35.57589 | 132.73287 | 37917 ft | 339 kts | 270° |
| 2026-05-04 05:07 | 35.58300 | 132.67559 | 37919 ft | 340 kts | 270° |
| 2026-05-04 05:07 | 35.59053 | 132.61821 | 37922 ft | 340 kts | 270° |
| 2026-05-04 05:09 | 35.62307 | 132.36853 | 37944 ft | 342 kts | 271° |
| 2026-05-04 05:10 | 35.63051 | 132.31083 | 37943 ft | 342 kts | 271° |
| 2026-05-04 05:10 | 35.63787 | 132.25344 | 37958 ft | 342 kts | 271° |
| 2026-05-04 05:11 | 35.64525 | 132.19556 | 37947 ft | 343 kts | 271° |
| 2026-05-04 05:11 | 35.65250 | 132.13830 | 37950 ft | 343 kts | 271° |
| 2026-05-04 05:12 | 35.65988 | 132.08030 | 37948 ft | 344 kts | 271° |
| 2026-05-04 05:12 | 35.66725 | 132.02226 | 37950 ft | 344 kts | 271° |
| 2026-05-04 05:13 | 35.67453 | 131.96411 | 37947 ft | 344 kts | 271° |
| 2026-05-04 05:13 | 35.68181 | 131.90599 | 37951 ft | 344 kts | 271° |
| 2026-05-04 05:14 | 35.68906 | 131.84783 | 37951 ft | 344 kts | 271° |
| 2026-05-04 05:14 | 35.69628 | 131.78964 | 37958 ft | 344 kts | 271° |
| 2026-05-04 05:15 | 35.70346 | 131.73134 | 37957 ft | 345 kts | 271° |
| 2026-05-04 05:15 | 35.71065 | 131.67299 | 37960 ft | 345 kts | 271° |
| 2026-05-04 05:16 | 35.71782 | 131.61455 | 37961 ft | 346 kts | 271° |
| 2026-05-04 05:16 | 35.72496 | 131.55607 | 37964 ft | 346 kts | 271° |
| 2026-05-04 05:17 | 35.73209 | 131.49751 | 37960 ft | 346 kts | 271° |
| 2026-05-04 05:17 | 35.73921 | 131.43888 | 37967 ft | 346 kts | 271° |
| 2026-05-04 05:18 | 35.74629 | 131.38022 | 37965 ft | 347 kts | 271° |
| 2026-05-04 05:18 | 35.75333 | 131.32149 | 37968 ft | 347 kts | 271° |
| 2026-05-04 05:19 | 35.76037 | 131.26271 | 37968 ft | 347 kts | 271° |
| 2026-05-04 05:19 | 35.76738 | 131.20386 | 37962 ft | 347 kts | 271° |
| 2026-05-04 05:20 | 35.77435 | 131.14498 | 37967 ft | 348 kts | 272° |
| 2026-05-04 05:20 | 35.78133 | 131.08601 | 37964 ft | 348 kts | 272° |
| 2026-05-04 05:21 | 35.78825 | 131.02705 | 37957 ft | 348 kts | 272° |
| 2026-05-04 05:21 | 35.79517 | 130.96804 | 37970 ft | 348 kts | 272° |
| 2026-05-04 05:22 | 35.80206 | 130.90901 | 37967 ft | 348 kts | 272° |
| 2026-05-04 05:22 | 35.80892 | 130.84990 | 37976 ft | 349 kts | 272° |
| 2026-05-04 05:23 | 35.81574 | 130.79075 | 37965 ft | 349 kts | 272° |
| 2026-05-04 05:23 | 35.82255 | 130.73156 | 37976 ft | 349 kts | 272° |
| 2026-05-04 05:24 | 35.82982 | 130.67237 | 37982 ft | 350 kts | 272° |
| 2026-05-04 05:24 | 35.83743 | 130.61310 | 37988 ft | 350 kts | 273° |
| 2026-05-04 05:25 | 35.84507 | 130.55342 | 37985 ft | 350 kts | 273° |
| 2026-05-04 05:25 | 35.85258 | 130.49409 | 37967 ft | 350 kts | 273° |
| 2026-05-04 05:26 | 35.86006 | 130.43466 | 37963 ft | 351 kts | 273° |
| 2026-05-04 05:26 | 35.86751 | 130.37528 | 37964 ft | 351 kts | 273° |
| 2026-05-04 05:28 | 35.89706 | 130.13714 | 37962 ft | 351 kts | 273° |
| 2026-05-04 05:29 | 35.90436 | 130.07770 | 37955 ft | 350 kts | 273° |
| 2026-05-04 05:29 | 35.91163 | 130.01827 | 37954 ft | 350 kts | 273° |
| 2026-05-04 05:31 | 35.93987 | 129.78492 | 37947 ft | 351 kts | 273° |
| 2026-05-04 05:32 | 35.94701 | 129.72517 | 37944 ft | 351 kts | 273° |
| 2026-05-04 05:33 | 35.95774 | 129.63509 | 37943 ft | 351 kts | 273° |
| 2026-05-04 05:33 | 35.96482 | 129.57539 | 37938 ft | 352 kts | 273° |
| 2026-05-04 05:34 | 35.97208 | 129.51442 | 37935 ft | 353 kts | 274° |
| 2026-05-04 05:34 | 35.98768 | 129.45612 | 37940 ft | 369 kts | 290° |
| 2026-05-04 05:35 | 36.01789 | 129.40340 | 37938 ft | 379 kts | 296° |
| 2026-05-04 05:35 | 36.04925 | 129.35127 | 37936 ft | 377 kts | 295° |
| 2026-05-04 05:36 | 36.07987 | 129.29871 | 37934 ft | 376 kts | 295° |
| 2026-05-04 05:36 | 36.11024 | 129.24601 | 37932 ft | 376 kts | 295° |
| 2026-05-04 05:37 | 36.14055 | 129.19333 | 37928 ft | 376 kts | 295° |
| 2026-05-04 05:37 | 36.17082 | 129.14057 | 37934 ft | 376 kts | 295° |
| 2026-05-04 05:38 | 36.21629 | 129.06122 | 37929 ft | 377 kts | 296° |
| 2026-05-04 05:38 | 36.24664 | 129.00814 | 37925 ft | 377 kts | 296° |
| 2026-05-04 05:39 | 36.29178 | 128.92908 | 37924 ft | 374 kts | 296° |
| 2026-05-04 05:40 | 36.33758 | 128.84859 | 37930 ft | 375 kts | 295° |
| 2026-05-04 05:40 | 36.36766 | 128.79569 | 37928 ft | 375 kts | 296° |
| 2026-05-04 05:41 | 36.39834 | 128.74166 | 37927 ft | 375 kts | 296° |
| 2026-05-04 05:41 | 36.42842 | 128.68855 | 37927 ft | 376 kts | 296° |
| 2026-05-04 05:42 | 36.45850 | 128.63535 | 37926 ft | 377 kts | 296° |
| 2026-05-04 05:42 | 36.48862 | 128.58203 | 37925 ft | 377 kts | 296° |
| 2026-05-04 05:43 | 36.51877 | 128.52863 | 37922 ft | 377 kts | 296° |
| 2026-05-04 05:45 | 36.63410 | 128.32337 | 37869 ft | 374 kts | 296° |
| 2026-05-04 05:45 | 36.64998 | 128.29532 | 37168 ft | 374 kts | 296° |
| 2026-05-04 05:47 | 36.75740 | 128.10806 | 34488 ft | 381 kts | 297° |
| 2026-05-04 05:47 | 36.77301 | 128.08080 | 33966 ft | 381 kts | 297° |
| 2026-05-04 05:47 | 36.78828 | 128.05386 | 33330 ft | 380 kts | 297° |
| 2026-05-04 05:48 | 36.80352 | 128.02684 | 32684 ft | 381 kts | 298° |
| 2026-05-04 05:48 | 36.81880 | 127.99965 | 32043 ft | 384 kts | 298° |
| 2026-05-04 05:48 | 36.83417 | 127.97232 | 31414 ft | 385 kts | 299° |
| 2026-05-04 05:48 | 36.84957 | 127.94489 | 30805 ft | 386 kts | 300° |
| 2026-05-04 05:49 | 36.86500 | 127.91741 | 30216 ft | 387 kts | 300° |
| 2026-05-04 05:49 | 36.88049 | 127.88979 | 29544 ft | 389 kts | 300° |
| 2026-05-04 05:49 | 36.89604 | 127.86201 | 28843 ft | 391 kts | 301° |
| 2026-05-04 05:49 | 36.91168 | 127.83405 | 28180 ft | 395 kts | 301° |
| 2026-05-04 05:51 | 37.02289 | 127.63478 | 24129 ft | 376 kts | 303° |
| 2026-05-04 05:51 | 37.03758 | 127.60844 | 23926 ft | 361 kts | 303° |
| 2026-05-04 05:52 | 37.05161 | 127.58329 | 23756 ft | 346 kts | 303° |
| 2026-05-04 05:52 | 37.06491 | 127.55938 | 23591 ft | 332 kts | 303° |
| 2026-05-04 05:52 | 37.07807 | 127.53568 | 23191 ft | 324 kts | 303° |
| 2026-05-04 05:52 | 37.09088 | 127.51260 | 22670 ft | 321 kts | 303° |
| 2026-05-04 05:53 | 37.10388 | 127.48915 | 22072 ft | 319 kts | 303° |
| 2026-05-04 05:54 | 37.19100 | 127.33203 | 18439 ft | 309 kts | 306° |
| 2026-05-04 05:55 | 37.20320 | 127.30997 | 17926 ft | 307 kts | 306° |
| 2026-05-04 05:55 | 37.21533 | 127.28801 | 17402 ft | 305 kts | 306° |
| 2026-05-04 05:55 | 37.22738 | 127.26619 | 16903 ft | 303 kts | 306° |
| 2026-05-04 05:55 | 37.23935 | 127.24453 | 16381 ft | 301 kts | 306° |
| 2026-05-04 05:56 | 37.25130 | 127.22290 | 15782 ft | 298 kts | 307° |
| 2026-05-04 05:56 | 37.26332 | 127.20073 | 15185 ft | 296 kts | 304° |
| 2026-05-04 05:56 | 37.27108 | 127.17650 | 14571 ft | 301 kts | 283° |
| 2026-05-04 05:56 | 37.27215 | 127.15010 | 13986 ft | 305 kts | 274° |
| 2026-05-04 05:57 | 37.27152 | 127.12354 | 13369 ft | 304 kts | 273° |
| 2026-05-04 05:57 | 37.27090 | 127.09714 | 12762 ft | 301 kts | 274° |
| 2026-05-04 05:57 | 37.27053 | 127.07101 | 12172 ft | 298 kts | 274° |
| 2026-05-04 05:57 | 37.26963 | 127.04515 | 11612 ft | 299 kts | 266° |
| 2026-05-04 05:58 | 37.26287 | 127.02033 | 11116 ft | 304 kts | 245° |
| 2026-05-04 05:58 | 37.24962 | 126.99986 | 10805 ft | 302 kts | 226° |
| 2026-05-04 05:58 | 37.23324 | 126.98354 | 10393 ft | 299 kts | 221° |
| 2026-05-04 05:58 | 37.21653 | 126.96812 | 10044 ft | 297 kts | 221° |
| 2026-05-04 05:59 | 37.20003 | 126.95264 | 9968 ft | 294 kts | 222° |
| 2026-05-04 05:59 | 37.18392 | 126.93717 | 9591 ft | 291 kts | 223° |
| 2026-05-04 05:59 | 37.16801 | 126.92161 | 9148 ft | 290 kts | 223° |
| 2026-05-04 05:59 | 37.15754 | 126.91132 | 8860 ft | 288 kts | 223° |
| 2026-05-04 06:00 | 37.14182 | 126.89579 | 8438 ft | 288 kts | 223° |
| 2026-05-04 06:00 | 37.12681 | 126.87948 | 8041 ft | 282 kts | 234° |
| 2026-05-04 06:00 | 37.11555 | 126.85978 | 7654 ft | 276 kts | 242° |
| 2026-05-04 06:00 | 37.10509 | 126.83969 | 7284 ft | 275 kts | 242° |
| 2026-05-04 06:01 | 37.09510 | 126.81943 | 6926 ft | 270 kts | 251° |
| 2026-05-04 06:01 | 37.09221 | 126.79716 | 6533 ft | 255 kts | 283° |
| 2026-05-04 06:03 | 37.17491 | 126.69848 | 4943 ft | 213 kts | 311° |
| 2026-05-04 06:03 | 37.18680 | 126.68853 | 4694 ft | 207 kts | 339° |
| 2026-05-04 06:05 | 37.25811 | 126.60644 | 2109 ft | 205 kts | 320° |
| 2026-05-04 06:05 | 37.28137 | 126.58567 | 1584 ft | 205 kts | 322° |
| 2026-05-04 06:05 | 37.29306 | 126.57530 | 1569 ft | 206 kts | 322° |
| 2026-05-04 06:06 | 37.30480 | 126.56490 | 1577 ft | 206 kts | 321° |
| 2026-05-04 06:06 | 37.31652 | 126.55450 | 1596 ft | 207 kts | 321° |
| 2026-05-04 06:06 | 37.32824 | 126.54409 | 1603 ft | 207 kts | 321° |
| 2026-05-04 06:06 | 37.34004 | 126.53360 | 1601 ft | 209 kts | 321° |
| 2026-05-04 06:07 | 37.35189 | 126.52308 | 1598 ft | 208 kts | 321° |
| 2026-05-04 06:07 | 37.36368 | 126.51260 | 1598 ft | 209 kts | 321° |
| 2026-05-04 06:07 | 37.37553 | 126.50207 | 1601 ft | 208 kts | 320° |
| 2026-05-04 06:07 | 37.38727 | 126.49161 | 1480 ft | 202 kts | 321° |
| 2026-05-04 06:08 | 37.39788 | 126.48222 | 1296 ft | 163 kts | 321° |
| 2026-05-04 06:08 | 37.40606 | 126.47496 | 1025 ft | 128 kts | 320° |
| 2026-05-04 06:08 | 37.41303 | 126.46875 | 797 ft | 126 kts | 319° |
| 2026-05-04 06:08 | 37.42006 | 126.46248 | 626 ft | 123 kts | 320° |
| 2026-05-04 06:09 | 37.42709 | 126.45621 | 456 ft | 125 kts | 319° |
| 2026-05-04 06:09 | 37.43419 | 126.44981 | 292 ft | 126 kts | 321° |
| 2026-05-04 06:11 | 37.46160 | 126.42714 | 38 ft | 23 kts | 357° |
| 2026-05-04 06:11 | 37.46319 | 126.42736 | 38 ft | 6 kts | 57° |
| 2026-05-04 06:13 | 37.46322 | 126.43203 | 38 ft | 0 kts | 69° |